createdAt,value
2023-04-23T00:02:05.928Z,91942.28
2023-04-23T00:04:39.086Z,91951.31
2023-04-23T00:07:13.480Z,91949.75
2023-04-23T00:09:45.869Z,91952.13
2023-04-23T00:12:18.661Z,91948.06
2023-04-23T00:14:52.348Z,91946.78
2023-04-23T00:17:24.974Z,91950.69
2023-04-23T00:19:57.261Z,91947.88
2023-04-23T00:22:29.703Z,91948.44
2023-04-23T00:25:02.615Z,91934.50
2023-04-23T00:27:35.071Z,91944.25
2023-04-23T00:30:09.266Z,91946.88
2023-04-23T00:32:41.983Z,91942.47
2023-04-23T00:35:14.342Z,91941.78
2023-04-23T00:37:46.992Z,91934.50
2023-04-23T00:40:20.108Z,91943.56
2023-04-23T00:42:53.379Z,91931.91
2023-04-23T00:45:26.508Z,91937.63
2023-04-23T00:47:59.065Z,91941.28
2023-04-23T00:50:31.660Z,91935.34
2023-04-23T00:53:05.025Z,91941.81
2023-04-23T00:55:37.862Z,91938.41
2023-04-23T00:58:10.212Z,91943.59
2023-04-23T01:00:46.236Z,91942.56
2023-04-23T01:03:21.038Z,91941.75
2023-04-23T01:05:53.413Z,91939.47
2023-04-23T01:08:26.182Z,91947.00
2023-04-23T01:10:59.645Z,91933.84
2023-04-23T01:13:32.987Z,91946.00
2023-04-23T01:16:07.492Z,91946.28
2023-04-23T01:18:41.114Z,91944.97
2023-04-23T01:21:16.849Z,91946.81
2023-04-23T01:23:49.997Z,91944.50
2023-04-23T01:26:23.315Z,91944.28
2023-04-23T01:28:55.760Z,91938.06
2023-04-23T01:31:29.440Z,91938.31
2023-04-23T01:34:02.604Z,91935.97
2023-04-23T01:36:35.514Z,91945.56
2023-04-23T01:39:09.294Z,91942.50
2023-04-23T01:41:41.704Z,91948.16
2023-04-23T01:44:16.668Z,91946.88
2023-04-23T01:46:48.924Z,91940.16
2023-04-23T01:49:21.379Z,91943.00
2023-04-23T01:51:53.700Z,91945.06
2023-04-23T01:54:26.705Z,91945.34
2023-04-23T01:56:59.523Z,91944.31
2023-04-23T01:59:32.023Z,91938.34
2023-04-23T02:02:04.677Z,91944.31
2023-04-23T02:04:38.818Z,91943.03
2023-04-23T02:07:11.516Z,91948.50
2023-04-23T02:09:44.496Z,91948.19
2023-04-23T02:12:16.920Z,91948.72
2023-04-23T02:14:49.338Z,91947.19
2023-04-23T02:17:22.470Z,91946.41
2023-04-23T02:19:55.567Z,91950.03
2023-04-23T02:22:28.074Z,91955.75
2023-04-23T02:25:01.663Z,91946.69
2023-04-23T02:27:34.582Z,91947.75
2023-04-23T02:30:08.787Z,91954.72
2023-04-23T02:32:42.270Z,91957.81
2023-04-23T02:35:14.634Z,91957.28
2023-04-23T02:37:47.093Z,91956.28
2023-04-23T02:40:20.178Z,91946.19
2023-04-23T02:42:52.462Z,91946.44
2023-04-23T02:45:25.097Z,91945.66
2023-04-23T02:47:57.526Z,91945.91
2023-04-23T02:50:29.956Z,91930.69
2023-04-23T02:53:02.243Z,91949.03
2023-04-23T02:55:36.214Z,91946.69
2023-04-23T02:58:08.692Z,91944.13
2023-04-23T03:00:42.955Z,91948.00
2023-04-23T03:03:16.078Z,91946.19
2023-04-23T03:05:48.575Z,91950.56
2023-04-23T03:08:21.280Z,91951.09
2023-04-23T03:10:54.498Z,91960.13
2023-04-23T03:13:27.192Z,91957.03
2023-04-23T03:15:59.680Z,91953.41
2023-04-23T03:18:32.942Z,91957.03
2023-04-23T03:21:05.836Z,91962.72
2023-04-23T03:23:38.419Z,91961.16
2023-04-23T03:26:12.285Z,91962.22
2023-04-23T03:28:44.752Z,91962.97
2023-04-23T03:31:17.418Z,91957.31
2023-04-23T03:33:49.786Z,91959.88
2023-04-23T03:36:31.632Z,91960.91
2023-04-23T03:39:04.946Z,91963.75
2023-04-23T03:41:50.308Z,91958.59
2023-04-23T03:44:25.920Z,91958.06
2023-04-23T03:46:59.192Z,91965.56
2023-04-23T03:49:31.461Z,91959.09
2023-04-23T03:52:04.100Z,91963.50
2023-04-23T03:54:37.851Z,91962.72
2023-04-23T03:57:16.341Z,91966.34
2023-04-23T04:00:15.339Z,91964.78
2023-04-23T04:02:48.623Z,91973.56
2023-04-23T04:05:21.437Z,91968.94
2023-04-23T04:07:54.035Z,91968.66
2023-04-23T04:10:26.346Z,91972.78
2023-04-23T04:12:59.388Z,91976.13
2023-04-23T04:15:32.398Z,91968.94
2023-04-23T04:18:04.923Z,91979.75
2023-04-23T04:20:37.199Z,91972.53
2023-04-23T04:23:09.652Z,91967.38
2023-04-23T04:25:41.966Z,91979.78
2023-04-23T04:28:15.074Z,91982.84
2023-04-23T04:30:49.499Z,91978.47
2023-04-23T04:33:21.833Z,91992.94
2023-04-23T04:35:54.114Z,91982.06
2023-04-23T04:38:26.432Z,91985.69
2023-04-23T04:41:01.536Z,91985.97
2023-04-23T04:43:34.639Z,91991.41
2023-04-23T04:46:11.016Z,91991.91
2023-04-23T04:48:43.412Z,91992.94
2023-04-23T04:51:15.790Z,91996.03
2023-04-23T04:54:11.361Z,91996.03
2023-04-23T04:56:43.674Z,91999.13
2023-04-23T04:59:16.650Z,92001.47
2023-04-23T05:01:49.004Z,92000.66
2023-04-23T05:04:21.315Z,91993.41
2023-04-23T05:06:53.608Z,92001.41
2023-04-23T05:09:25.972Z,91996.22
2023-04-23T05:11:58.278Z,92003.44
2023-04-23T05:14:31.202Z,91999.03
2023-04-23T05:17:03.522Z,92001.28
2023-04-23T05:19:36.024Z,92001.53
2023-04-23T05:22:08.363Z,92000.44
2023-04-23T05:24:40.865Z,91997.00
2023-04-23T05:27:13.417Z,91999.53
2023-04-23T05:29:46.430Z,92001.00
2023-04-23T05:32:18.753Z,92003.25
2023-04-23T05:34:51.077Z,92002.34
2023-04-23T05:37:23.494Z,92003.88
2023-04-23T05:39:56.775Z,92009.25
2023-04-23T05:42:29.094Z,92009.88
2023-04-23T05:45:02.367Z,92008.94
2023-04-23T05:47:35.710Z,92025.41
2023-04-23T05:50:10.512Z,92015.72
2023-04-23T05:52:42.836Z,92019.56
2023-04-23T05:55:15.483Z,92011.91
2023-04-23T05:57:47.759Z,92024.38
2023-04-23T06:00:20.886Z,92020.91
2023-04-23T06:02:53.474Z,92026.19
2023-04-23T06:05:26.211Z,92016.44
2023-04-23T06:07:58.630Z,92020.53
2023-04-23T06:10:30.998Z,92014.84
2023-04-23T06:13:03.346Z,92018.22
2023-04-23T06:15:36.328Z,92011.34
2023-04-23T06:18:09.803Z,92013.56
2023-04-23T06:20:42.353Z,92014.81
2023-04-23T06:23:17.340Z,92018.00
2023-04-23T06:25:49.637Z,92020.84
2023-04-23T06:28:21.990Z,92019.72
2023-04-23T06:31:15.142Z,92024.06
2023-04-23T06:33:47.530Z,92025.69
2023-04-23T06:36:19.858Z,92022.16
2023-04-23T06:38:52.152Z,92026.06
2023-04-23T06:41:24.457Z,92022.38
2023-04-23T06:44:09.085Z,92022.25
2023-04-23T06:46:45.831Z,92024.88
2023-04-23T06:49:18.359Z,92023.44
2023-04-23T06:51:50.650Z,92027.06
2023-04-23T06:54:23.185Z,92030.00
2023-04-23T06:56:56.246Z,92023.75
2023-04-23T06:59:28.554Z,92024.69
2023-04-23T07:02:04.047Z,92023.31
2023-04-23T07:04:36.370Z,92027.66
2023-04-23T07:07:08.685Z,92027.09
2023-04-23T07:09:40.967Z,92026.72
2023-04-23T07:12:13.344Z,92020.31
2023-04-23T07:14:45.655Z,92021.72
2023-04-23T07:17:18.608Z,92019.38
2023-04-23T07:19:50.885Z,92020.16
2023-04-23T07:22:23.802Z,92009.03
2023-04-23T07:24:56.140Z,92023.69
2023-04-23T07:27:28.453Z,92024.19
2023-04-23T07:30:01.534Z,92024.91
2023-04-23T07:32:34.559Z,92023.03
2023-04-23T07:35:09.666Z,92027.31
2023-04-23T07:37:42.003Z,92023.00
2023-04-23T07:40:14.305Z,92015.13
2023-04-23T07:42:46.711Z,92024.06
2023-04-23T07:45:19.578Z,92021.34
2023-04-23T07:47:52.790Z,92014.31
2023-04-23T07:50:25.258Z,92019.22
2023-04-23T07:52:57.861Z,92020.91
2023-04-23T07:55:30.327Z,92022.41
2023-04-23T07:58:02.744Z,92026.31
2023-04-23T08:00:35.941Z,92023.94
2023-04-23T08:03:09.112Z,92023.31
2023-04-23T08:05:41.667Z,92019.81
2023-04-23T08:08:14.030Z,92018.50
2023-04-23T08:10:46.329Z,92012.44
2023-04-23T08:13:19.123Z,92018.38
2023-04-23T08:15:51.679Z,92015.22
2023-04-23T08:18:24.712Z,92023.75
2023-04-23T08:20:57.623Z,92013.91
2023-04-23T08:23:30.084Z,92019.31
2023-04-23T08:26:02.396Z,92016.91
2023-04-23T08:28:34.815Z,92013.66
2023-04-23T08:31:19.051Z,92012.88
2023-04-23T08:33:58.697Z,92008.97
2023-04-23T08:36:31.392Z,92012.22
2023-04-23T08:39:03.923Z,92006.97
2023-04-23T08:41:41.905Z,92008.19
2023-04-23T08:44:18.793Z,92005.34
2023-04-23T08:46:53.965Z,91998.41
2023-04-23T08:49:32.891Z,92009.13
2023-04-23T08:52:11.106Z,92005.44
2023-04-23T08:54:49.173Z,92002.50
2023-04-23T08:57:22.425Z,92007.63
2023-04-23T08:59:56.677Z,92007.75
2023-04-23T09:02:29.434Z,92006.66
2023-04-23T09:05:04.007Z,92000.38
2023-04-23T09:07:37.018Z,91990.72
2023-04-23T09:10:11.791Z,92003.00
2023-04-23T09:12:44.936Z,91993.59
2023-04-23T09:15:17.524Z,91990.88
2023-04-23T09:17:50.644Z,91985.50
2023-04-23T09:20:23.732Z,91990.50
2023-04-23T09:22:56.396Z,91987.22
2023-04-23T09:25:30.312Z,91998.88
2023-04-23T09:28:02.972Z,91991.75
2023-04-23T09:30:39.227Z,91989.34
2023-04-23T09:33:12.186Z,91968.69
2023-04-23T09:35:47.328Z,91979.63
2023-04-23T09:38:20.203Z,91968.28
2023-04-23T09:40:52.538Z,91985.66
2023-04-23T09:43:29.972Z,91974.69
2023-04-23T09:46:02.440Z,91966.84
2023-04-23T09:48:41.409Z,91971.75
2023-04-23T09:51:14.711Z,91968.47
2023-04-23T09:53:47.220Z,91967.28
2023-04-23T09:56:20.652Z,91967.88
2023-04-23T09:58:53.712Z,91971.94
2023-04-23T10:01:29.672Z,91962.59
2023-04-23T10:04:02.402Z,91966.75
2023-04-23T10:09:12.193Z,91956.75
2023-04-23T10:11:45.173Z,91955.25
2023-04-23T10:14:18.149Z,91948.75
2023-04-23T10:16:52.487Z,91951.19
2023-04-23T10:19:26.762Z,91942.19
2023-04-23T10:22:18.641Z,91943.97
2023-04-23T10:24:57.510Z,91933.81
2023-04-23T10:27:48.562Z,91907.56
2023-04-23T10:30:24.083Z,91934.59
2023-04-23T10:32:57.185Z,91927.25
2023-04-23T10:35:30.122Z,91932.06
2023-04-23T10:38:04.258Z,91925.09
2023-04-23T10:40:39.760Z,91924.00
2023-04-23T10:43:12.830Z,91919.91
2023-04-23T10:45:45.353Z,91912.38
2023-04-23T10:48:17.654Z,91906.97
2023-04-23T10:51:09.682Z,91900.03
2023-04-23T10:53:51.705Z,91897.06
2023-04-23T10:56:27.370Z,91890.78
2023-04-23T10:58:59.885Z,91891.16
2023-04-23T11:01:32.219Z,91893.44
2023-04-23T11:04:21.679Z,91890.59
2023-04-23T11:07:03.882Z,91882.84
2023-04-23T11:09:39.171Z,91887.00
2023-04-23T11:12:13.240Z,91880.84
2023-04-23T11:14:49.622Z,91890.22
2023-04-23T11:17:23.714Z,91877.00
2023-04-23T11:20:09.819Z,91882.31
2023-04-23T11:22:43.649Z,91883.72
2023-04-23T11:25:21.231Z,91870.84
2023-04-23T11:27:54.831Z,91882.16
2023-04-23T11:30:28.793Z,91878.78
2023-04-23T11:33:02.303Z,91876.94
2023-04-23T11:35:39.856Z,91858.72
2023-04-23T11:38:12.167Z,91867.88
2023-04-23T11:40:47.807Z,91866.38
2023-04-23T11:43:20.706Z,91859.69
2023-04-23T11:45:55.312Z,91853.28
2023-04-23T11:48:27.760Z,91853.41
2023-04-23T11:51:00.124Z,91857.41
2023-04-23T11:53:32.824Z,91852.28
2023-04-23T11:56:06.801Z,91847.16
2023-04-23T11:58:39.467Z,91848.63
2023-04-23T12:01:12.669Z,91854.53
2023-04-23T12:03:48.834Z,91849.22
2023-04-23T12:06:24.204Z,91851.28
2023-04-23T12:08:56.493Z,91846.53
2023-04-23T12:11:29.495Z,91849.09
2023-04-23T12:14:01.930Z,91843.78
2023-04-23T12:16:39.055Z,91849.28
2023-04-23T12:19:14.209Z,91846.47
2023-04-23T12:21:53.829Z,91844.72
2023-04-23T12:24:28.163Z,91845.47
2023-04-23T12:27:01.955Z,91840.84
2023-04-23T12:29:35.228Z,91840.69
2023-04-23T12:32:10.550Z,91842.44
2023-04-23T12:34:52.259Z,91832.91
2023-04-23T12:37:26.117Z,91841.22
2023-04-23T12:39:58.862Z,91843.38
2023-04-23T12:42:31.863Z,91839.22
2023-04-23T12:45:09.644Z,91838.06
2023-04-23T12:47:41.914Z,91839.75
2023-04-23T12:50:14.334Z,91838.63
2023-04-23T12:52:46.656Z,91836.16
2023-04-23T12:55:19.258Z,91833.75
2023-04-23T12:57:52.724Z,91838.91
2023-04-23T13:00:25.352Z,91825.41
2023-04-23T13:02:57.888Z,91831.34
2023-04-23T13:05:30.551Z,91832.53
2023-04-23T13:08:02.935Z,91829.50
2023-04-23T13:10:35.393Z,91827.25
2023-04-23T13:13:08.475Z,91826.88
2023-04-23T13:15:42.229Z,91819.75
2023-04-23T13:18:14.598Z,91812.25
2023-04-23T13:20:46.903Z,91819.66
2023-04-23T13:23:19.317Z,91808.31
2023-04-23T13:25:51.713Z,91808.38
2023-04-23T13:28:24.669Z,91805.94
2023-04-23T13:30:57.113Z,91800.97
2023-04-23T13:33:30.212Z,91804.84
2023-04-23T13:36:02.931Z,91799.25
2023-04-23T13:38:35.333Z,91794.72
2023-04-23T13:41:07.617Z,91794.97
2023-04-23T13:43:40.622Z,91798.47
2023-04-23T13:46:13.566Z,91790.47
2023-04-23T13:48:45.931Z,91787.75
2023-04-23T13:51:34.214Z,91789.06
2023-04-23T13:54:07.947Z,91794.38
2023-04-23T13:56:40.288Z,91787.22
2023-04-23T13:59:19.803Z,91790.91
2023-04-23T14:01:53.076Z,91800.06
2023-04-23T14:04:26.238Z,91793.03
2023-04-23T14:06:58.585Z,91796.06
2023-04-23T14:09:30.975Z,91793.31
2023-04-23T14:12:04.008Z,91797.03
2023-04-23T14:14:37.630Z,91798.06
2023-04-23T14:17:09.926Z,91798.72
2023-04-23T14:19:42.335Z,91788.78
2023-04-23T14:22:14.979Z,91797.81
2023-04-23T14:24:51.165Z,91790.78
2023-04-23T14:27:23.532Z,91792.09
2023-04-23T14:30:04.326Z,91793.63
2023-04-23T14:32:36.725Z,91787.66
2023-04-23T14:35:09.420Z,91800.50
2023-04-23T14:37:44.581Z,91791.53
2023-04-23T14:40:19.213Z,91785.44
2023-04-23T14:42:52.513Z,91789.91
2023-04-23T14:45:30.542Z,91783.06
2023-04-23T14:48:03.321Z,91786.19
2023-04-23T14:50:35.723Z,91781.91
2023-04-23T14:53:09.827Z,91781.00
2023-04-23T14:55:42.744Z,91779.88
2023-04-23T14:58:15.066Z,91776.13
2023-04-23T15:00:50.216Z,91777.19
2023-04-23T15:03:22.710Z,91769.00
2023-04-23T15:05:55.126Z,91780.03
2023-04-23T15:08:27.534Z,91771.97
2023-04-23T15:10:59.874Z,91776.22
2023-04-23T15:13:46.455Z,91770.19
2023-04-23T15:16:39.972Z,91768.53
2023-04-23T15:19:18.788Z,91758.59
2023-04-23T15:21:51.317Z,91764.75
2023-04-23T15:24:23.587Z,91763.41
2023-04-23T15:26:57.427Z,91762.88
2023-04-23T15:29:29.950Z,91760.19
2023-04-23T15:32:03.163Z,91754.75
2023-04-23T15:34:35.811Z,91763.94
2023-04-23T15:37:08.363Z,91759.63
2023-04-23T15:39:40.783Z,91762.75
2023-04-23T15:42:15.044Z,91759.97
2023-04-23T15:44:48.449Z,91758.69
2023-04-23T15:47:22.504Z,91760.38
2023-04-23T15:49:54.818Z,91755.19
2023-04-23T15:52:27.174Z,91762.19
2023-04-23T15:54:59.977Z,91764.28
2023-04-23T15:57:32.794Z,91760.03
2023-04-23T16:00:06.392Z,91753.31
2023-04-23T16:02:45.108Z,91751.56
2023-04-23T16:05:20.469Z,91746.97
2023-04-23T16:07:52.963Z,91743.38
2023-04-23T16:10:26.947Z,91746.38
2023-04-23T16:12:59.471Z,91745.19
2023-04-23T16:15:32.150Z,91742.28
2023-04-23T16:18:05.726Z,91750.44
2023-04-23T16:20:38.224Z,91750.53
2023-04-23T16:23:10.589Z,91748.94
2023-04-23T16:25:43.338Z,91750.63
2023-04-23T16:28:15.867Z,91747.91
2023-04-23T16:30:48.177Z,91746.38
2023-04-23T16:33:23.134Z,91741.63
2023-04-23T16:35:56.439Z,91746.69
2023-04-23T16:38:28.729Z,91744.88
2023-04-23T16:41:01.433Z,91740.88
2023-04-23T16:43:33.745Z,91741.03
2023-04-23T16:46:08.551Z,91739.94
2023-04-23T16:48:41.766Z,91741.03
2023-04-23T16:51:14.200Z,91738.09
2023-04-23T16:53:46.595Z,91741.72
2023-04-23T16:56:18.970Z,91735.84
2023-04-23T16:58:51.346Z,91735.28
2023-04-23T17:01:23.725Z,91735.72
2023-04-23T17:03:56.870Z,91735.03
2023-04-23T17:06:31.518Z,91735.38
2023-04-23T17:09:04.554Z,91742.47
2023-04-23T17:11:36.864Z,91746.75
2023-04-23T17:14:09.171Z,91749.09
2023-04-23T17:16:41.725Z,91748.03
2023-04-23T17:19:15.389Z,91753.28
2023-04-23T17:21:47.686Z,91749.38
2023-04-23T17:24:20.001Z,91753.75
2023-04-23T17:26:52.342Z,91753.75
2023-04-23T17:29:25.141Z,91757.34
2023-04-23T17:31:57.557Z,91756.13
2023-04-23T17:34:30.859Z,91763.78
2023-04-23T17:37:03.261Z,91760.28
2023-04-23T17:39:35.564Z,91760.50
2023-04-23T17:42:08.079Z,91760.38
2023-04-23T17:44:41.042Z,91757.97
2023-04-23T17:47:13.530Z,91754.03
2023-04-23T17:49:46.672Z,91754.59
2023-04-23T17:52:19.024Z,91762.66
2023-04-23T17:54:51.316Z,91768.78
2023-04-23T17:57:23.660Z,91772.34
2023-04-23T17:59:58.510Z,91776.28
2023-04-23T18:02:30.961Z,91778.34
2023-04-23T18:05:05.306Z,91778.09
2023-04-23T18:07:38.431Z,91762.59
2023-04-23T18:10:11.828Z,91774.63
2023-04-23T18:12:44.199Z,91789.16
2023-04-23T18:15:16.681Z,91787.97
2023-04-23T18:17:49.627Z,91793.59
2023-04-23T18:20:24.868Z,91792.13
2023-04-23T18:22:57.586Z,91801.56
2023-04-23T18:25:29.974Z,91802.41
2023-04-23T18:28:02.673Z,91810.50
2023-04-23T18:30:37.246Z,91801.63
2023-04-23T18:33:25.147Z,91808.75
2023-04-23T18:36:04.232Z,91812.63
2023-04-23T18:38:43.626Z,91808.06
2023-04-23T18:41:16.060Z,91811.13
2023-04-23T18:43:48.461Z,91807.47
2023-04-23T18:46:23.010Z,91809.09
2023-04-23T18:48:59.568Z,91813.28
2023-04-23T18:51:37.853Z,91803.59
2023-04-23T18:54:14.105Z,91807.94
2023-04-23T18:56:47.197Z,91806.53
2023-04-23T18:59:19.587Z,91805.91
2023-04-23T19:01:52.079Z,91810.84
2023-04-23T19:04:24.893Z,91805.00
2023-04-23T19:06:58.953Z,91807.31
2023-04-23T19:09:31.296Z,91817.47
2023-04-23T19:12:04.109Z,91813.31
2023-04-23T19:14:36.930Z,91819.63
2023-04-23T19:17:09.307Z,91817.91
2023-04-23T19:19:41.801Z,91817.44
2023-04-23T19:22:14.998Z,91820.63
2023-04-23T19:24:47.353Z,91824.31
2023-04-23T19:27:20.835Z,91823.56
2023-04-23T19:29:53.849Z,91823.09
2023-04-23T19:32:26.494Z,91814.94
2023-04-23T19:34:58.950Z,91822.91
2023-04-23T19:37:32.067Z,91824.59
2023-04-23T19:40:06.315Z,91821.19
2023-04-23T19:42:38.615Z,91827.47
2023-04-23T19:45:11.819Z,91824.06
2023-04-23T19:47:44.229Z,91822.81
2023-04-23T19:50:18.751Z,91821.75
2023-04-23T19:52:51.824Z,91819.88
2023-04-23T19:55:26.358Z,91817.41
2023-04-23T19:57:58.804Z,91806.28
2023-04-23T20:00:31.200Z,91814.56
2023-04-23T20:03:04.216Z,91816.06
2023-04-23T20:05:36.849Z,91822.25
2023-04-23T20:08:14.631Z,91822.09
2023-04-23T20:10:46.964Z,91817.28
2023-04-23T20:13:19.904Z,91822.44
2023-04-23T20:15:53.267Z,91816.06
2023-04-23T20:18:28.478Z,91808.56
2023-04-23T20:21:00.855Z,91812.94
2023-04-23T20:23:33.833Z,91815.06
2023-04-23T20:26:06.876Z,91802.50
2023-04-23T20:28:39.198Z,91806.13
2023-04-23T20:31:11.693Z,91812.97
2023-04-23T20:33:44.001Z,91812.34
2023-04-23T20:36:16.548Z,91811.84
2023-04-23T20:38:53.522Z,91809.88
2023-04-23T20:41:28.543Z,91811.53
2023-04-23T20:44:01.249Z,91803.94
2023-04-23T20:46:33.707Z,91812.69
2023-04-23T20:49:06.692Z,91807.84
2023-04-23T20:51:39.058Z,91815.19
2023-04-23T20:54:12.210Z,91819.44
2023-04-23T20:56:44.608Z,91811.75
2023-04-23T20:59:16.927Z,91811.75
2023-04-23T21:01:49.486Z,91814.28
2023-04-23T21:04:22.490Z,91805.63
2023-04-23T21:06:54.881Z,91811.00
2023-04-23T21:09:27.829Z,91809.38
2023-04-23T21:12:00.161Z,91812.06
2023-04-23T21:14:33.046Z,91821.59
2023-04-23T21:17:05.336Z,91829.13
2023-04-23T21:19:37.687Z,91819.31
2023-04-23T21:22:10.110Z,91823.91
2023-04-23T21:24:43.173Z,91818.72
2023-04-23T21:27:20.725Z,91819.31
2023-04-23T21:29:53.043Z,91818.91
2023-04-23T21:32:25.321Z,91826.25
2023-04-23T21:34:57.700Z,91815.56
2023-04-23T21:37:30.626Z,91827.69
2023-04-23T21:40:04.277Z,91821.78
2023-04-23T21:42:36.691Z,91826.16
2023-04-23T21:45:09.783Z,91835.41
2023-04-23T21:47:42.113Z,91847.81
2023-04-23T21:50:16.743Z,91838.47
2023-04-23T21:52:51.792Z,91839.44
2023-04-23T21:55:25.997Z,91852.91
2023-04-23T21:58:09.831Z,91858.81
2023-04-23T22:00:49.232Z,91866.72
2023-04-23T22:03:37.917Z,91866.91
2023-04-23T22:06:12.122Z,91866.09
2023-04-23T22:08:45.452Z,91874.31
2023-04-23T22:11:18.811Z,91868.63
2023-04-23T22:13:51.091Z,91865.94
2023-04-23T22:16:28.534Z,91871.63
2023-04-23T22:19:01.671Z,91860.25
2023-04-23T22:21:34.001Z,91857.25
2023-04-23T22:24:06.832Z,91859.66
2023-04-23T22:26:39.794Z,91853.94
2023-04-23T22:29:12.442Z,91841.47
2023-04-23T22:31:44.966Z,91833.84
2023-04-23T22:34:18.600Z,91825.34
2023-04-23T22:36:51.035Z,91811.34
2023-04-23T22:39:23.392Z,91807.09
2023-04-23T22:41:56.526Z,91803.28
2023-04-23T22:44:28.872Z,91795.94
2023-04-23T22:47:01.359Z,91801.03
2023-04-23T22:49:34.234Z,91805.97
2023-04-23T22:52:08.030Z,91815.00
2023-04-23T22:54:40.517Z,91822.06
2023-04-23T22:57:14.026Z,91830.03
2023-04-23T22:59:46.381Z,91833.09
2023-04-23T23:02:18.792Z,91838.53
2023-04-23T23:04:51.125Z,91839.75
2023-04-23T23:07:23.460Z,91843.06
2023-04-23T23:09:55.861Z,91840.63
2023-04-23T23:12:28.853Z,91834.06
2023-04-23T23:15:01.589Z,91831.34
2023-04-23T23:17:34.169Z,91833.72
2023-04-23T23:20:08.190Z,91829.94
2023-04-23T23:22:40.513Z,91822.41
2023-04-23T23:25:12.859Z,91809.09
2023-04-23T23:27:45.886Z,91799.25
2023-04-23T23:30:18.397Z,91802.34
2023-04-23T23:32:50.761Z,91799.28
2023-04-23T23:35:23.177Z,91792.59
2023-04-23T23:37:56.062Z,91794.06
2023-04-23T23:40:28.401Z,91784.59
2023-04-23T23:43:01.364Z,91779.03
2023-04-23T23:45:33.817Z,91778.41
2023-04-23T23:48:06.394Z,91776.00
2023-04-23T23:50:38.746Z,91773.59
2023-04-23T23:53:11.109Z,91769.00
2023-04-23T23:55:43.337Z,91768.09
2023-04-23T23:58:16.328Z,91767.94
